createdAt,value
2019-03-11T00:00:57.966Z,113.90
2019-03-11T00:03:25.507Z,122.20
2019-03-11T00:05:53.199Z,116.50
2019-03-11T00:08:20.773Z,117.60
2019-03-11T00:10:48.150Z,110.90
2019-03-11T00:13:15.679Z,119.03
2019-03-11T00:15:43.275Z,111.10
2019-03-11T00:18:11.036Z,119.80
2019-03-11T00:20:38.588Z,120.20
2019-03-11T00:23:06.060Z,113.27
2019-03-11T00:25:33.574Z,119.30
2019-03-11T00:28:02.006Z,114.53
2019-03-11T00:30:30.335Z,117.63
2019-03-11T00:32:57.861Z,113.67
2019-03-11T00:35:25.371Z,109.93
2019-03-11T00:37:52.722Z,111.30
2019-03-11T00:40:22.347Z,112.50
2019-03-11T00:42:49.979Z,117.87
2019-03-11T00:45:17.574Z,113.20
2019-03-11T00:47:45.234Z,105.67
2019-03-11T00:50:12.922Z,108.63
2019-03-11T00:52:40.573Z,113.17
2019-03-11T00:55:09.752Z,135.93
2019-03-11T00:57:37.330Z,120.83
2019-03-11T01:00:11.053Z,107.70
2019-03-11T01:02:38.696Z,117.87
2019-03-11T01:05:06.296Z,108.23
2019-03-11T01:07:34.118Z,111.20
2019-03-11T01:10:02.379Z,116.87
2019-03-11T01:12:30.643Z,114.03
2019-03-11T01:14:58.108Z,123.03
2019-03-11T01:17:25.725Z,110.67
2019-03-11T01:19:54.090Z,118.70
2019-03-11T01:22:22.833Z,116.50
2019-03-11T01:24:50.495Z,127.13
2019-03-11T01:27:19.912Z,130.87
2019-03-11T01:29:47.447Z,125.33
2019-03-11T01:32:14.760Z,119.53
2019-03-11T01:34:42.413Z,136.97
2019-03-11T01:37:10.143Z,113.57
2019-03-11T01:39:37.804Z,130.67
2019-03-11T01:42:05.227Z,119.03
2019-03-11T01:44:34.129Z,128.77
2019-03-11T01:47:01.675Z,117.20
2019-03-11T01:49:30.433Z,120.57
2019-03-11T01:51:58.000Z,112.97
2019-03-11T01:54:26.270Z,120.93
2019-03-11T01:56:53.831Z,110.63
2019-03-11T01:59:21.365Z,121.40
2019-03-11T02:01:48.810Z,105.03
2019-03-11T02:04:16.236Z,117.17
2019-03-11T02:06:43.625Z,116.73
2019-03-11T02:09:12.141Z,117.07
2019-03-11T02:11:40.467Z,128.33
2019-03-11T02:14:08.003Z,125.43
2019-03-11T02:16:35.538Z,112.90
2019-03-11T02:19:03.089Z,122.47
2019-03-11T02:21:30.407Z,110.00
2019-03-11T02:23:57.768Z,108.40
2019-03-11T02:26:25.118Z,110.90
2019-03-11T02:28:52.436Z,111.80
2019-03-11T02:31:19.721Z,110.07
2019-03-11T02:33:47.272Z,108.37
2019-03-11T02:36:14.610Z,113.60
2019-03-11T02:38:42.053Z,111.63
2019-03-11T02:41:09.481Z,108.87
2019-03-11T02:43:36.909Z,115.47
2019-03-11T02:46:06.177Z,113.47
2019-03-11T02:48:33.620Z,119.20
2019-03-11T02:51:01.983Z,111.73
2019-03-11T02:53:29.420Z,108.77
2019-03-11T02:55:56.873Z,110.87
2019-03-11T02:58:24.198Z,111.83
2019-03-11T03:01:00.204Z,108.67
2019-03-11T03:03:41.510Z,112.03
2019-03-11T03:06:12.183Z,110.27
2019-03-11T03:08:39.723Z,109.00
2019-03-11T03:11:07.060Z,115.13
2019-03-11T03:13:34.787Z,115.40
2019-03-11T03:16:02.357Z,106.97
2019-03-11T03:18:29.874Z,114.87
2019-03-11T03:20:57.195Z,111.93
2019-03-11T03:23:24.495Z,110.90
2019-03-11T03:25:51.965Z,127.77
2019-03-11T03:28:19.320Z,110.03
2019-03-11T03:30:46.711Z,108.67
2019-03-11T03:33:14.373Z,123.73
2019-03-11T03:35:41.868Z,107.27
2019-03-11T03:38:11.366Z,181.80
2019-03-11T03:40:38.684Z,103.93
2019-03-11T03:43:08.572Z,106.67
2019-03-11T03:45:41.608Z,110.97
2019-03-11T03:48:10.126Z,108.40
2019-03-11T03:50:38.592Z,102.77
2019-03-11T03:53:07.558Z,108.90
2019-03-11T03:55:35.132Z,110.37
2019-03-11T03:58:02.485Z,110.87
2019-03-11T04:00:30.931Z,109.90
2019-03-11T04:02:58.419Z,126.87
2019-03-11T04:05:25.881Z,111.27
2019-03-11T04:07:54.406Z,103.70
2019-03-11T04:10:22.093Z,106.60
2019-03-11T04:12:49.728Z,112.57
2019-03-11T04:15:17.252Z,113.43
2019-03-11T04:17:45.412Z,113.43
2019-03-11T04:20:14.754Z,107.90
2019-03-11T04:22:42.167Z,107.03
2019-03-11T04:25:09.924Z,106.23
2019-03-11T04:27:37.826Z,112.77
2019-03-11T04:30:10.957Z,101.20
2019-03-11T04:32:38.496Z,102.70
2019-03-11T04:35:06.051Z,104.77
2019-03-11T04:37:34.789Z,107.13
2019-03-11T04:40:02.591Z,125.53
2019-03-11T04:42:30.147Z,105.63
2019-03-11T04:44:57.677Z,112.30
2019-03-11T04:47:25.326Z,104.83
2019-03-11T04:49:52.750Z,114.33
2019-03-11T04:52:20.283Z,100.80
2019-03-11T04:54:47.597Z,109.70
2019-03-11T04:57:15.547Z,105.37
2019-03-11T04:59:43.679Z,112.40
2019-03-11T05:02:11.082Z,106.47
2019-03-11T05:04:38.524Z,114.00
2019-03-11T05:07:05.906Z,102.00
2019-03-11T05:09:34.292Z,117.63
2019-03-11T05:12:01.782Z,108.00
2019-03-11T05:14:29.242Z,114.00
2019-03-11T05:16:56.933Z,107.50
2019-03-11T05:19:24.670Z,112.23
2019-03-11T05:21:54.001Z,104.20
2019-03-11T05:24:21.358Z,117.97
2019-03-11T05:26:49.358Z,104.30
2019-03-11T05:29:16.963Z,112.80
2019-03-11T05:31:45.198Z,98.93
2019-03-11T05:34:12.661Z,111.70
2019-03-11T05:36:40.131Z,106.17
2019-03-11T05:39:07.835Z,110.27
2019-03-11T05:41:35.336Z,105.23
2019-03-11T05:44:02.986Z,110.47
2019-03-11T05:46:30.448Z,103.27
2019-03-11T05:48:57.948Z,121.70
2019-03-11T05:51:31.479Z,99.80
2019-03-11T05:53:54.838Z,104.37
2019-03-11T05:56:23.079Z,105.37
2019-03-11T05:58:50.422Z,102.00
2019-03-11T06:01:17.865Z,107.13
2019-03-11T06:03:45.442Z,105.03
2019-03-11T06:06:12.870Z,104.77
2019-03-11T06:08:40.190Z,101.73
2019-03-11T06:11:07.508Z,107.10
2019-03-11T06:13:38.263Z,101.57
2019-03-11T06:16:05.608Z,103.93
2019-03-11T06:18:44.310Z,102.33
2019-03-11T06:21:29.864Z,104.97
2019-03-11T06:23:57.312Z,110.40
2019-03-11T06:26:24.774Z,99.70
2019-03-11T06:28:52.239Z,103.90
2019-03-11T06:31:19.674Z,120.67
2019-03-11T06:33:47.042Z,103.57
2019-03-11T06:36:14.823Z,101.60
2019-03-11T06:38:42.253Z,105.27
2019-03-11T06:41:09.568Z,102.90
2019-03-11T06:43:36.931Z,103.87
2019-03-11T06:46:04.458Z,104.83
2019-03-11T06:48:32.348Z,105.63
2019-03-11T06:50:59.902Z,107.50
2019-03-11T06:53:27.204Z,99.33
2019-03-11T06:58:43.850Z,109.03
2019-03-11T07:01:41.336Z,88.53
2019-03-11T07:04:08.728Z,113.63
2019-03-11T07:06:36.155Z,117.53
2019-03-11T07:09:06.897Z,119.63
2019-03-11T07:11:35.208Z,105.00
2019-03-11T07:14:02.735Z,111.80
2019-03-11T07:16:30.159Z,103.37
2019-03-11T07:18:57.678Z,122.77
2019-03-11T07:21:25.018Z,101.67
2019-03-11T07:23:52.460Z,106.17
2019-03-11T07:26:19.934Z,99.00
2019-03-11T07:28:47.233Z,99.03
2019-03-11T07:31:14.629Z,103.80
2019-03-11T07:33:42.107Z,109.83
2019-03-11T07:36:09.625Z,111.50
2019-03-11T07:38:36.934Z,103.93
2019-03-11T07:41:04.550Z,108.23
2019-03-11T07:43:31.896Z,106.97
2019-03-11T07:45:59.605Z,104.70
2019-03-11T07:48:27.356Z,109.77
2019-03-11T07:50:54.693Z,111.37
2019-03-11T07:53:22.317Z,108.77
2019-03-11T07:55:49.712Z,121.83
2019-03-11T07:58:17.035Z,108.13
2019-03-11T08:00:53.352Z,108.17
2019-03-11T08:03:13.980Z,105.80
2019-03-11T08:05:41.288Z,110.83
2019-03-11T08:08:09.913Z,117.80
2019-03-11T08:10:37.368Z,114.70
2019-03-11T08:13:07.909Z,112.90
2019-03-11T08:15:34.861Z,108.13
2019-03-11T08:18:03.484Z,113.33
2019-03-11T08:20:31.914Z,109.17
2019-03-11T08:22:59.383Z,116.87
2019-03-11T08:25:26.920Z,105.40
2019-03-11T08:27:54.443Z,115.30
2019-03-11T08:30:22.057Z,110.70
2019-03-11T08:32:49.677Z,110.10
2019-03-11T08:35:17.271Z,111.10
2019-03-11T08:37:44.906Z,122.07
2019-03-11T08:40:12.792Z,114.90
2019-03-11T08:42:40.426Z,108.40
2019-03-11T08:45:10.822Z,116.47
2019-03-11T08:47:38.132Z,108.23
2019-03-11T08:50:07.606Z,114.93
2019-03-11T08:52:35.061Z,109.87
2019-03-11T08:55:03.069Z,117.13
2019-03-11T08:57:30.618Z,109.87
2019-03-11T08:59:59.050Z,111.50
2019-03-11T09:02:26.899Z,113.07
2019-03-11T09:04:55.208Z,133.97
2019-03-11T09:07:22.631Z,109.87
2019-03-11T09:09:52.184Z,127.17
2019-03-11T09:12:19.538Z,117.87
2019-03-11T09:14:46.950Z,119.10
2019-03-11T09:17:14.283Z,121.87
2019-03-11T09:19:41.827Z,129.83
2019-03-11T09:22:09.359Z,123.87
2019-03-11T09:24:36.659Z,129.43
2019-03-11T09:27:04.379Z,120.90
2019-03-11T09:29:32.003Z,138.40
2019-03-11T09:31:59.305Z,125.23
2019-03-11T09:34:26.909Z,130.10
2019-03-11T09:36:54.409Z,117.83
2019-03-11T09:39:21.960Z,138.07
2019-03-11T09:41:49.276Z,135.40
2019-03-11T09:44:17.889Z,137.93
2019-03-11T09:46:45.292Z,121.77
2019-03-11T09:49:12.627Z,138.63
2019-03-11T09:51:40.178Z,112.90
2019-03-11T09:54:07.700Z,130.40
2019-03-11T09:56:42.927Z,118.10
2019-03-11T09:59:04.549Z,124.97
2019-03-11T10:01:31.864Z,124.00
2019-03-11T10:03:59.279Z,126.20
2019-03-11T10:06:26.716Z,116.57
2019-03-11T10:08:54.318Z,119.93
2019-03-11T10:11:21.795Z,123.20
2019-03-11T10:13:49.134Z,123.43
2019-03-11T10:16:16.927Z,122.77
2019-03-11T10:18:44.563Z,133.07
2019-03-11T10:21:12.036Z,130.33
2019-03-11T10:23:39.556Z,122.80
2019-03-11T10:26:06.997Z,120.77
2019-03-11T10:28:34.515Z,120.47
2019-03-11T10:31:01.869Z,117.03
2019-03-11T10:33:29.362Z,119.23
2019-03-11T10:35:56.717Z,113.00
2019-03-11T10:38:24.159Z,117.97
2019-03-11T10:40:51.683Z,115.90
2019-03-11T10:43:19.037Z,119.10
2019-03-11T10:45:46.499Z,116.00
2019-03-11T10:48:13.858Z,121.43
2019-03-11T10:50:41.397Z,134.33
2019-03-11T10:53:08.991Z,119.43
2019-03-11T10:55:36.427Z,115.83
2019-03-11T10:58:04.128Z,135.83
2019-03-11T11:00:32.059Z,132.10
2019-03-11T11:02:59.578Z,122.87
2019-03-11T11:05:27.246Z,129.87
2019-03-11T11:07:55.854Z,134.70
2019-03-11T11:10:23.403Z,138.13
2019-03-11T11:12:51.156Z,131.87
2019-03-11T11:15:20.252Z,140.23
2019-03-11T11:17:47.838Z,141.57
2019-03-11T11:20:16.302Z,138.23
2019-03-11T11:22:43.847Z,140.77
2019-03-11T11:25:14.405Z,143.83
2019-03-11T11:27:41.931Z,145.73
2019-03-11T11:30:13.801Z,134.37
2019-03-11T11:32:41.438Z,136.03
2019-03-11T11:35:09.010Z,135.57
2019-03-11T11:40:42.326Z,155.40
2019-03-11T11:43:09.755Z,152.50
2019-03-11T11:45:37.274Z,142.43
2019-03-11T11:48:08.233Z,133.43
2019-03-11T11:50:35.022Z,146.47
2019-03-11T11:53:05.603Z,136.33
2019-03-11T11:55:33.217Z,140.90
2019-03-11T11:58:01.294Z,134.53
2019-03-11T12:00:29.657Z,140.60
2019-03-11T12:02:57.187Z,145.80
2019-03-11T12:05:25.879Z,137.83
2019-03-11T12:07:53.547Z,139.67
2019-03-11T12:10:21.330Z,140.53
2019-03-11T12:12:48.923Z,138.37
2019-03-11T12:15:16.644Z,158.10
2019-03-11T12:17:44.489Z,145.57
2019-03-11T12:20:15.776Z,140.27
2019-03-11T12:22:43.361Z,148.57
2019-03-11T12:25:12.866Z,137.83
2019-03-11T12:27:40.566Z,135.50
2019-03-11T12:30:13.304Z,135.53
2019-03-11T12:32:41.885Z,133.73
2019-03-11T12:35:09.785Z,135.37
2019-03-11T12:37:37.283Z,125.47
2019-03-11T12:40:05.485Z,125.70
2019-03-11T12:42:33.082Z,133.23
2019-03-11T12:45:00.421Z,139.30
2019-03-11T12:47:27.933Z,137.60
2019-03-11T12:49:55.585Z,150.53
2019-03-11T12:52:23.174Z,167.03
2019-03-11T12:54:52.471Z,145.40
2019-03-11T12:57:19.976Z,135.70
2019-03-11T12:59:47.592Z,142.53
2019-03-11T13:02:15.131Z,134.80
2019-03-11T13:04:42.512Z,153.50
2019-03-11T13:07:10.026Z,145.67
2019-03-11T13:09:37.494Z,146.67
2019-03-11T13:12:04.966Z,139.50
2019-03-11T13:14:32.514Z,147.70
2019-03-11T13:16:59.866Z,149.37
2019-03-11T13:19:27.322Z,148.17
2019-03-11T13:21:54.789Z,144.33
2019-03-11T13:24:22.261Z,161.07
2019-03-11T13:26:49.822Z,141.20
2019-03-11T13:29:17.279Z,142.60
2019-03-11T13:31:44.805Z,137.53
2019-03-11T13:34:12.442Z,146.50
2019-03-11T13:36:39.792Z,137.13
2019-03-11T13:39:08.713Z,144.90
2019-03-11T13:41:36.165Z,138.13
2019-03-11T13:44:03.733Z,140.00
2019-03-11T13:46:31.286Z,143.77
2019-03-11T13:48:58.638Z,144.67
2019-03-11T13:51:26.167Z,140.03
2019-03-11T13:53:53.626Z,141.23
2019-03-11T13:56:21.274Z,146.00
2019-03-11T13:58:48.918Z,148.93
2019-03-11T14:01:16.460Z,155.10
2019-03-11T14:03:43.864Z,140.37
2019-03-11T14:06:11.414Z,142.40
2019-03-11T14:08:38.731Z,136.87
2019-03-11T14:11:06.433Z,143.03
2019-03-11T14:13:33.885Z,137.77
2019-03-11T14:16:01.384Z,138.67
2019-03-11T14:18:28.832Z,144.23
2019-03-11T14:20:56.293Z,136.37
2019-03-11T14:23:23.721Z,135.43
2019-03-11T14:25:51.145Z,127.20
2019-03-11T14:28:18.910Z,126.07
2019-03-11T14:30:46.402Z,136.70
2019-03-11T14:33:14.615Z,142.17
2019-03-11T14:35:43.184Z,153.37
2019-03-11T14:38:11.785Z,143.00
2019-03-11T14:40:40.022Z,135.40
2019-03-11T14:43:07.614Z,131.50
2019-03-11T14:45:35.139Z,132.33
2019-03-11T14:48:02.485Z,130.50
2019-03-11T14:50:30.173Z,129.70
2019-03-11T14:52:57.763Z,126.97
2019-03-11T14:55:25.211Z,128.10
2019-03-11T14:57:52.653Z,130.33
2019-03-11T15:00:20.240Z,154.43
2019-03-11T15:02:48.539Z,128.90
2019-03-11T15:05:16.643Z,134.73
2019-03-11T15:07:46.256Z,194.93
2019-03-11T15:10:14.606Z,144.40
2019-03-11T15:12:42.479Z,132.10
2019-03-11T15:15:12.662Z,150.47
2019-03-11T15:17:40.318Z,123.87
2019-03-11T15:20:08.285Z,124.87
2019-03-11T15:22:35.914Z,113.03
2019-03-11T15:25:04.104Z,125.57
2019-03-11T15:27:33.241Z,123.80
2019-03-11T15:30:01.018Z,129.30
2019-03-11T15:32:28.581Z,117.70
2019-03-11T15:34:56.143Z,125.83
2019-03-11T15:37:23.545Z,118.27
2019-03-11T15:39:51.256Z,128.60
2019-03-11T15:42:18.858Z,114.13
2019-03-11T15:44:46.303Z,123.87
2019-03-11T15:47:14.071Z,129.10
2019-03-11T15:49:41.522Z,133.13
2019-03-11T15:52:09.079Z,118.73
2019-03-11T15:54:36.747Z,129.13
2019-03-11T15:57:05.701Z,117.10
2019-03-11T15:59:34.640Z,123.37
2019-03-11T16:02:02.431Z,125.07
2019-03-11T16:04:30.863Z,126.10
2019-03-11T16:06:59.221Z,112.73
2019-03-11T16:09:27.620Z,126.40
2019-03-11T16:11:55.054Z,114.77
2019-03-11T16:14:22.711Z,124.43
2019-03-11T16:16:50.612Z,111.50
2019-03-11T16:20:10.411Z,123.77
2019-03-11T16:22:37.862Z,113.13
2019-03-11T16:25:06.505Z,115.70
2019-03-11T16:27:34.198Z,112.33
2019-03-11T16:30:02.101Z,119.40
2019-03-11T16:32:30.320Z,115.67
2019-03-11T16:34:58.882Z,131.47
2019-03-11T16:37:26.660Z,124.33
2019-03-11T16:39:54.046Z,123.37
2019-03-11T16:42:22.392Z,113.23
2019-03-11T16:44:50.702Z,113.70
2019-03-11T16:47:18.026Z,120.17
2019-03-11T16:49:45.483Z,119.50
2019-03-11T16:52:12.891Z,119.50
2019-03-11T16:54:40.496Z,119.33
2019-03-11T16:57:08.019Z,122.67
2019-03-11T16:59:35.443Z,118.73
2019-03-11T17:02:03.287Z,116.73
2019-03-11T17:04:30.768Z,125.13
2019-03-11T17:06:58.405Z,130.80
2019-03-11T17:09:29.153Z,121.00
2019-03-11T17:11:56.553Z,123.53
2019-03-11T17:14:24.901Z,129.33
2019-03-11T17:16:52.362Z,116.33
2019-03-11T17:19:20.121Z,147.13
2019-03-11T17:21:47.434Z,113.23
2019-03-11T17:24:15.094Z,128.97
2019-03-11T17:26:42.407Z,119.73
2019-03-11T17:29:09.907Z,129.43
2019-03-11T17:31:37.325Z,117.77
2019-03-11T17:34:05.710Z,119.57
2019-03-11T17:36:33.163Z,123.70
2019-03-11T17:39:00.620Z,124.37
2019-03-11T17:41:28.610Z,121.50
2019-03-11T17:43:56.217Z,137.93
2019-03-11T17:46:24.598Z,125.07
2019-03-11T17:48:52.799Z,123.33
2019-03-11T17:51:20.438Z,122.67
2019-03-11T17:53:47.990Z,119.07
2019-03-11T17:56:15.754Z,126.77
2019-03-11T17:58:44.081Z,117.87
2019-03-11T18:01:11.815Z,120.70
2019-03-11T18:03:39.392Z,129.13
2019-03-11T18:06:11.660Z,130.10
2019-03-11T18:08:36.335Z,123.80
2019-03-11T18:11:03.791Z,123.80
2019-03-11T18:13:31.357Z,117.03
2019-03-11T18:15:58.790Z,127.03
2019-03-11T18:18:32.956Z,121.27
2019-03-11T18:20:56.599Z,135.80
2019-03-11T18:23:24.968Z,129.13
2019-03-11T18:25:52.757Z,125.27
2019-03-11T18:28:20.421Z,131.53
2019-03-11T18:30:48.013Z,124.37
2019-03-11T18:33:16.902Z,132.10
2019-03-11T18:35:47.179Z,122.77
2019-03-11T18:38:14.920Z,130.67
2019-03-11T18:40:42.652Z,137.93
2019-03-11T18:43:20.092Z,133.57
2019-03-11T18:45:40.286Z,127.43
2019-03-11T18:48:07.733Z,134.10
2019-03-11T18:50:35.753Z,144.23
2019-03-11T18:53:04.166Z,136.33
2019-03-11T18:55:31.997Z,137.93
2019-03-11T18:57:59.388Z,139.73
2019-03-11T19:00:28.371Z,141.90
2019-03-11T19:02:56.053Z,137.83
2019-03-11T19:05:23.654Z,137.07
2019-03-11T19:07:55.425Z,144.43
2019-03-11T19:10:23.220Z,137.40
2019-03-11T19:12:53.365Z,135.03
2019-03-11T19:15:21.294Z,133.27
2019-03-11T19:17:48.830Z,136.97
2019-03-11T19:20:17.395Z,128.20
2019-03-11T19:22:44.887Z,128.07
2019-03-11T19:25:12.890Z,128.27
2019-03-11T19:31:24.236Z,125.67
2019-03-11T19:33:51.828Z,125.97
2019-03-11T19:36:19.500Z,129.23
2019-03-11T19:38:47.282Z,127.10
2019-03-11T19:41:14.835Z,130.00
2019-03-11T19:43:42.359Z,130.70
2019-03-11T19:46:09.981Z,136.00
2019-03-11T19:48:37.446Z,143.13
2019-03-11T19:51:07.548Z,149.17
2019-03-11T19:53:35.273Z,130.47
2019-03-11T19:56:02.726Z,139.13
2019-03-11T19:58:30.319Z,136.53
2019-03-11T20:00:57.838Z,135.60
2019-03-11T20:03:30.274Z,144.93
2019-03-11T20:05:54.956Z,137.43
2019-03-11T20:08:22.391Z,137.23
2019-03-11T20:10:50.033Z,133.83
2019-03-11T20:13:17.832Z,152.57
2019-03-11T20:15:46.510Z,135.87
2019-03-11T20:18:15.258Z,140.67
2019-03-11T20:20:46.630Z,125.13
2019-03-11T20:23:17.000Z,144.30
2019-03-11T20:25:54.184Z,142.57
2019-03-11T20:28:23.320Z,154.63
2019-03-11T20:30:51.019Z,130.17
2019-03-11T20:33:19.843Z,136.90
2019-03-11T20:35:47.662Z,125.67
2019-03-11T20:38:15.905Z,131.23
2019-03-11T20:40:43.352Z,130.47
2019-03-11T20:43:11.513Z,135.53
2019-03-11T20:45:39.493Z,129.07
2019-03-11T20:48:07.065Z,131.23
2019-03-11T20:50:42.108Z,142.50
2019-03-11T20:53:05.615Z,133.23
2019-03-11T20:55:34.196Z,138.77
2019-03-11T20:58:01.892Z,147.57
2019-03-11T21:00:30.174Z,141.30
2019-03-11T21:03:01.801Z,144.67
2019-03-11T21:05:31.024Z,150.73
2019-03-11T21:07:59.416Z,142.40
2019-03-11T21:10:27.086Z,144.67
2019-03-11T21:12:56.334Z,139.73
2019-03-11T21:15:23.913Z,143.83
2019-03-11T21:17:55.949Z,131.07
2019-03-11T21:20:24.401Z,134.00
2019-03-11T21:22:51.960Z,130.53
2019-03-11T21:25:21.300Z,139.23
2019-03-11T21:27:48.932Z,124.90
2019-03-11T21:30:18.552Z,134.23
2019-03-11T21:32:46.207Z,141.23
2019-03-11T21:35:14.485Z,137.70
2019-03-11T21:37:42.318Z,127.53
2019-03-11T21:40:12.583Z,146.97
2019-03-11T21:42:40.484Z,140.83
2019-03-11T21:45:09.876Z,136.47
2019-03-11T21:47:39.474Z,133.23
2019-03-11T21:50:10.369Z,142.40
2019-03-11T21:52:37.992Z,131.63
2019-03-11T21:55:05.744Z,134.53
2019-03-11T21:57:33.221Z,135.63
2019-03-11T22:00:00.892Z,140.73
2019-03-11T22:02:28.348Z,129.03
2019-03-11T22:04:56.033Z,135.80
2019-03-11T22:07:24.423Z,132.77
2019-03-11T22:09:51.867Z,138.10
2019-03-11T22:12:19.739Z,127.83
2019-03-11T22:14:47.580Z,131.00
2019-03-11T22:17:14.932Z,133.27
2019-03-11T22:19:42.285Z,150.10
2019-03-11T22:22:09.867Z,129.03
2019-03-11T22:24:37.296Z,131.97
2019-03-11T22:27:05.166Z,125.20
2019-03-11T22:29:32.629Z,140.43
2019-03-11T22:32:00.107Z,130.50
2019-03-11T22:34:27.849Z,135.63
2019-03-11T22:36:56.139Z,128.33
2019-03-11T22:39:23.652Z,138.13
2019-03-11T22:41:52.751Z,122.83
2019-03-11T22:44:20.366Z,130.43
2019-03-11T22:46:47.783Z,130.47
2019-03-11T22:49:15.378Z,128.57
2019-03-11T22:51:42.864Z,115.43
2019-03-11T22:54:10.314Z,141.20
2019-03-11T22:56:37.697Z,121.30
2019-03-11T22:59:05.067Z,130.10
2019-03-11T23:01:32.621Z,125.67
2019-03-11T23:04:00.203Z,127.57
2019-03-11T23:06:27.640Z,114.10
2019-03-11T23:08:54.992Z,121.83
2019-03-11T23:11:23.577Z,129.27
2019-03-11T23:13:50.973Z,116.47
2019-03-11T23:16:20.482Z,118.60
2019-03-11T23:18:48.267Z,117.70
2019-03-11T23:21:15.626Z,117.77
2019-03-11T23:23:43.081Z,120.87
2019-03-11T23:26:10.648Z,121.97
2019-03-11T23:28:38.210Z,128.30
2019-03-11T23:31:05.708Z,127.00
2019-03-11T23:33:33.404Z,131.53
2019-03-11T23:36:01.146Z,127.80
2019-03-11T23:38:28.847Z,127.33
2019-03-11T23:40:56.344Z,120.97
2019-03-11T23:43:23.821Z,120.37
2019-03-11T23:45:51.397Z,123.20
2019-03-11T23:48:18.905Z,122.73
2019-03-11T23:50:46.645Z,121.83
2019-03-11T23:53:14.023Z,118.80
2019-03-11T23:55:41.520Z,118.70
2019-03-11T23:58:09.202Z,119.03
